sensor_id;sensor_type;location;lat;lon;timestamp;P1;durP1;ratioP1;P2;durP2;ratioP2
56242;SDS011;42155;53.096;23.226;2022-11-15T00:00:14;21.17;;;9.30;;
56242;SDS011;42155;53.096;23.226;2022-11-15T00:02:14;45.80;;;17.02;;
56242;SDS011;42155;53.096;23.226;2022-11-15T00:04:14;26.45;;;11.32;;
56242;SDS011;42155;53.096;23.226;2022-11-15T00:06:15;29.80;;;12.70;;
56242;SDS011;42155;53.096;23.226;2022-11-15T00:08:15;27.23;;;13.20;;
56242;SDS011;42155;53.096;23.226;2022-11-15T00:10:16;37.25;;;15.02;;
56242;SDS011;42155;53.096;23.226;2022-11-15T00:12:16;34.03;;;14.07;;
56242;SDS011;42155;53.096;23.226;2022-11-15T00:14:16;27.85;;;11.32;;
56242;SDS011;42155;53.096;23.226;2022-11-15T00:16:17;52.40;;;17.33;;
56242;SDS011;42155;53.096;23.226;2022-11-15T00:18:17;38.70;;;14.88;;
56242;SDS011;42155;53.096;23.226;2022-11-15T00:20:18;22.38;;;10.98;;
56242;SDS011;42155;53.096;23.226;2022-11-15T00:22:18;29.60;;;12.75;;
56242;SDS011;42155;53.096;23.226;2022-11-15T00:24:19;37.97;;;14.07;;
56242;SDS011;42155;53.096;23.226;2022-11-15T00:26:19;34.92;;;15.73;;
56242;SDS011;42155;53.096;23.226;2022-11-15T00:28:19;28.10;;;13.18;;
56242;SDS011;42155;53.096;23.226;2022-11-15T00:30:20;28.90;;;12.95;;
56242;SDS011;42155;53.096;23.226;2022-11-15T00:32:20;23.23;;;11.18;;
56242;SDS011;42155;53.096;23.226;2022-11-15T00:34:20;24.98;;;12.05;;
56242;SDS011;42155;53.096;23.226;2022-11-15T00:36:21;23.15;;;10.90;;
56242;SDS011;42155;53.096;23.226;2022-11-15T00:38:21;18.17;;;9.40;;
56242;SDS011;42155;53.096;23.226;2022-11-15T00:40:21;17.95;;;9.73;;
56242;SDS011;42155;53.096;23.226;2022-11-15T00:42:22;19.85;;;9.20;;
56242;SDS011;42155;53.096;23.226;2022-11-15T00:44:22;19.52;;;9.15;;
56242;SDS011;42155;53.096;23.226;2022-11-15T00:46:22;17.48;;;9.35;;
56242;SDS011;42155;53.096;23.226;2022-11-15T00:48:23;19.75;;;9.25;;
56242;SDS011;42155;53.096;23.226;2022-11-15T00:50:23;19.77;;;10.07;;
56242;SDS011;42155;53.096;23.226;2022-11-15T00:52:23;18.60;;;9.73;;
56242;SDS011;42155;53.096;23.226;2022-11-15T00:54:24;20.83;;;9.65;;
56242;SDS011;42155;53.096;23.226;2022-11-15T00:56:24;18.10;;;9.70;;
56242;SDS011;42155;53.096;23.226;2022-11-15T00:58:24;17.83;;;8.88;;
56242;SDS011;42155;53.096;23.226;2022-11-15T01:00:24;16.85;;;9.00;;
56242;SDS011;42155;53.096;23.226;2022-11-15T01:02:25;22.70;;;10.82;;
56242;SDS011;42155;53.096;23.226;2022-11-15T01:04:25;16.88;;;8.77;;
56242;SDS011;42155;53.096;23.226;2022-11-15T01:06:25;18.63;;;9.95;;
56242;SDS011;42155;53.096;23.226;2022-11-15T01:08:26;18.02;;;10.23;;
56242;SDS011;42155;53.096;23.226;2022-11-15T01:10:26;18.55;;;10.07;;
56242;SDS011;42155;53.096;23.226;2022-11-15T01:12:27;17.33;;;9.50;;
56242;SDS011;42155;53.096;23.226;2022-11-15T01:14:27;21.13;;;10.52;;
56242;SDS011;42155;53.096;23.226;2022-11-15T01:16:27;19.13;;;9.63;;
56242;SDS011;42155;53.096;23.226;2022-11-15T01:18:28;21.10;;;10.68;;
56242;SDS011;42155;53.096;23.226;2022-11-15T01:20:28;24.90;;;11.23;;
56242;SDS011;42155;53.096;23.226;2022-11-15T01:22:28;22.10;;;10.90;;
56242;SDS011;42155;53.096;23.226;2022-11-15T01:24:29;22.55;;;10.60;;
56242;SDS011;42155;53.096;23.226;2022-11-15T01:26:29;18.88;;;9.70;;
56242;SDS011;42155;53.096;23.226;2022-11-15T01:28:33;19.48;;;9.93;;
56242;SDS011;42155;53.096;23.226;2022-11-15T01:30:35;20.23;;;9.80;;
56242;SDS011;42155;53.096;23.226;2022-11-15T01:32:36;17.95;;;9.13;;
56242;SDS011;42155;53.096;23.226;2022-11-15T01:34:36;19.27;;;10.25;;
56242;SDS011;42155;53.096;23.226;2022-11-15T01:36:36;19.02;;;9.82;;
56242;SDS011;42155;53.096;23.226;2022-11-15T01:38:37;19.95;;;9.80;;
56242;SDS011;42155;53.096;23.226;2022-11-15T01:40:37;17.08;;;10.07;;
56242;SDS011;42155;53.096;23.226;2022-11-15T01:42:37;21.73;;;10.30;;
56242;SDS011;42155;53.096;23.226;2022-11-15T01:44:46;17.65;;;9.50;;
56242;SDS011;42155;53.096;23.226;2022-11-15T01:46:47;18.23;;;9.63;;
56242;SDS011;42155;53.096;23.226;2022-11-15T01:48:49;17.45;;;9.32;;
56242;SDS011;42155;53.096;23.226;2022-11-15T01:50:52;17.45;;;8.63;;
56242;SDS011;42155;53.096;23.226;2022-11-15T01:52:52;19.90;;;10.05;;
56242;SDS011;42155;53.096;23.226;2022-11-15T01:55:04;20.73;;;10.48;;
56242;SDS011;42155;53.096;23.226;2022-11-15T01:57:08;18.95;;;9.70;;
56242;SDS011;42155;53.096;23.226;2022-11-15T01:59:11;21.45;;;10.48;;
56242;SDS011;42155;53.096;23.226;2022-11-15T02:01:12;25.23;;;10.45;;
56242;SDS011;42155;53.096;23.226;2022-11-15T02:03:13;22.23;;;11.55;;
56242;SDS011;42155;53.096;23.226;2022-11-15T02:05:14;20.35;;;10.52;;
56242;SDS011;42155;53.096;23.226;2022-11-15T02:07:15;19.42;;;10.75;;
56242;SDS011;42155;53.096;23.226;2022-11-15T02:09:19;21.85;;;10.82;;
56242;SDS011;42155;53.096;23.226;2022-11-15T02:11:20;19.75;;;11.18;;
56242;SDS011;42155;53.096;23.226;2022-11-15T02:13:20;23.02;;;11.98;;
56242;SDS011;42155;53.096;23.226;2022-11-15T02:15:20;19.80;;;10.88;;
56242;SDS011;42155;53.096;23.226;2022-11-15T02:29:09;28.65;;;13.80;;
56242;SDS011;42155;53.096;23.226;2022-11-15T02:38:28;26.48;;;14.07;;
56242;SDS011;42155;53.096;23.226;2022-11-15T02:42:51;29.50;;;14.43;;
56242;SDS011;42155;53.096;23.226;2022-11-15T02:44:55;32.83;;;16.23;;
56242;SDS011;42155;53.096;23.226;2022-11-15T02:46:58;31.40;;;15.95;;
56242;SDS011;42155;53.096;23.226;2022-11-15T02:49:02;33.67;;;16.83;;
56242;SDS011;42155;53.096;23.226;2022-11-15T02:51:03;31.98;;;16.42;;
56242;SDS011;42155;53.096;23.226;2022-11-15T02:53:03;33.70;;;17.38;;
56242;SDS011;42155;53.096;23.226;2022-11-15T02:55:04;36.10;;;17.92;;
56242;SDS011;42155;53.096;23.226;2022-11-15T02:57:11;34.65;;;18.13;;
56242;SDS011;42155;53.096;23.226;2022-11-15T03:01:35;33.70;;;17.38;;
56242;SDS011;42155;53.096;23.226;2022-11-15T03:08:31;33.72;;;17.58;;
56242;SDS011;42155;53.096;23.226;2022-11-15T03:10:46;33.80;;;18.00;;
56242;SDS011;42155;53.096;23.226;2022-11-15T03:15:20;30.80;;;16.40;;
56242;SDS011;42155;53.096;23.226;2022-11-15T03:17:31;33.47;;;16.98;;
56242;SDS011;42155;53.096;23.226;2022-11-15T03:19:55;36.03;;;16.85;;
56242;SDS011;42155;53.096;23.226;2022-11-15T03:21:59;33.63;;;17.08;;
56242;SDS011;42155;53.096;23.226;2022-11-15T03:24:03;34.67;;;17.27;;
56242;SDS011;42155;53.096;23.226;2022-11-15T03:26:07;31.85;;;16.83;;
56242;SDS011;42155;53.096;23.226;2022-11-15T03:28:12;33.80;;;17.65;;
56242;SDS011;42155;53.096;23.226;2022-11-15T03:30:17;35.40;;;18.05;;
56242;SDS011;42155;53.096;23.226;2022-11-15T03:32:23;37.30;;;18.73;;
56242;SDS011;42155;53.096;23.226;2022-11-15T03:34:37;32.97;;;17.40;;
56242;SDS011;42155;53.096;23.226;2022-11-15T03:36:41;35.13;;;17.45;;
56242;SDS011;42155;53.096;23.226;2022-11-15T03:38:43;37.20;;;18.23;;
56242;SDS011;42155;53.096;23.226;2022-11-15T03:40:45;36.15;;;17.80;;
56242;SDS011;42155;53.096;23.226;2022-11-15T03:42:58;31.90;;;16.55;;
56242;SDS011;42155;53.096;23.226;2022-11-15T03:47:32;39.80;;;16.92;;
56242;SDS011;42155;53.096;23.226;2022-11-15T03:49:36;37.45;;;17.70;;
56242;SDS011;42155;53.096;23.226;2022-11-15T03:51:41;37.97;;;18.30;;
56242;SDS011;42155;53.096;23.226;2022-11-15T03:53:42;38.88;;;17.65;;
56242;SDS011;42155;53.096;23.226;2022-11-15T03:55:42;40.80;;;19.13;;
56242;SDS011;42155;53.096;23.226;2022-11-15T03:57:42;37.00;;;17.90;;
56242;SDS011;42155;53.096;23.226;2022-11-15T03:59:43;38.80;;;18.50;;
56242;SDS011;42155;53.096;23.226;2022-11-15T04:01:43;35.35;;;17.15;;
56242;SDS011;42155;53.096;23.226;2022-11-15T04:03:44;38.10;;;18.13;;
56242;SDS011;42155;53.096;23.226;2022-11-15T04:05:44;39.65;;;18.38;;
56242;SDS011;42155;53.096;23.226;2022-11-15T04:07:44;37.28;;;18.13;;
56242;SDS011;42155;53.096;23.226;2022-11-15T04:09:45;41.35;;;18.65;;
56242;SDS011;42155;53.096;23.226;2022-11-15T04:11:45;37.47;;;17.02;;
56242;SDS011;42155;53.096;23.226;2022-11-15T04:13:45;42.05;;;19.05;;
56242;SDS011;42155;53.096;23.226;2022-11-15T04:15:46;43.70;;;18.92;;
56242;SDS011;42155;53.096;23.226;2022-11-15T04:17:47;39.28;;;19.02;;
56242;SDS011;42155;53.096;23.226;2022-11-15T04:19:52;38.40;;;17.88;;
56242;SDS011;42155;53.096;23.226;2022-11-15T04:21:53;41.53;;;19.13;;
56242;SDS011;42155;53.096;23.226;2022-11-15T04:23:53;38.78;;;18.33;;
56242;SDS011;42155;53.096;23.226;2022-11-15T04:25:54;40.95;;;18.67;;
56242;SDS011;42155;53.096;23.226;2022-11-15T04:27:55;44.35;;;20.55;;
56242;SDS011;42155;53.096;23.226;2022-11-15T04:29:56;42.25;;;19.42;;
56242;SDS011;42155;53.096;23.226;2022-11-15T04:31:57;38.30;;;19.23;;
56242;SDS011;42155;53.096;23.226;2022-11-15T04:33:57;38.97;;;18.05;;
56242;SDS011;42155;53.096;23.226;2022-11-15T04:35:57;39.25;;;18.75;;
56242;SDS011;42155;53.096;23.226;2022-11-15T04:37:58;45.67;;;20.75;;
56242;SDS011;42155;53.096;23.226;2022-11-15T04:39:58;39.92;;;19.45;;
56242;SDS011;42155;53.096;23.226;2022-11-15T04:41:59;40.38;;;19.00;;
56242;SDS011;42155;53.096;23.226;2022-11-15T04:43:59;42.10;;;19.70;;
56242;SDS011;42155;53.096;23.226;2022-11-15T04:45:59;40.97;;;19.90;;
56242;SDS011;42155;53.096;23.226;2022-11-15T04:48:00;44.38;;;20.75;;
56242;SDS011;42155;53.096;23.226;2022-11-15T04:50:00;41.65;;;20.25;;
56242;SDS011;42155;53.096;23.226;2022-11-15T04:52:01;42.78;;;19.38;;
56242;SDS011;42155;53.096;23.226;2022-11-15T04:54:01;45.03;;;21.73;;
56242;SDS011;42155;53.096;23.226;2022-11-15T04:56:01;48.38;;;22.55;;
56242;SDS011;42155;53.096;23.226;2022-11-15T04:58:02;52.30;;;23.23;;
56242;SDS011;42155;53.096;23.226;2022-11-15T05:00:04;47.10;;;22.77;;
56242;SDS011;42155;53.096;23.226;2022-11-15T05:02:06;52.58;;;22.35;;
56242;SDS011;42155;53.096;23.226;2022-11-15T05:04:06;46.30;;;21.45;;
56242;SDS011;42155;53.096;23.226;2022-11-15T05:06:07;45.85;;;22.00;;
56242;SDS011;42155;53.096;23.226;2022-11-15T05:08:07;46.65;;;21.88;;
56242;SDS011;42155;53.096;23.226;2022-11-15T05:10:08;45.70;;;21.02;;
56242;SDS011;42155;53.096;23.226;2022-11-15T05:12:08;47.72;;;21.75;;
56242;SDS011;42155;53.096;23.226;2022-11-15T05:14:09;43.20;;;21.13;;
56242;SDS011;42155;53.096;23.226;2022-11-15T05:16:09;48.08;;;21.92;;
56242;SDS011;42155;53.096;23.226;2022-11-15T05:18:10;44.97;;;21.10;;
56242;SDS011;42155;53.096;23.226;2022-11-15T05:20:10;42.45;;;20.00;;
56242;SDS011;42155;53.096;23.226;2022-11-15T05:22:11;42.80;;;21.15;;
56242;SDS011;42155;53.096;23.226;2022-11-15T05:24:11;44.95;;;20.83;;
56242;SDS011;42155;53.096;23.226;2022-11-15T05:26:11;45.05;;;21.23;;
56242;SDS011;42155;53.096;23.226;2022-11-15T05:28:12;46.03;;;21.02;;
56242;SDS011;42155;53.096;23.226;2022-11-15T05:30:13;43.35;;;19.80;;
56242;SDS011;42155;53.096;23.226;2022-11-15T05:32:13;38.47;;;18.75;;
56242;SDS011;42155;53.096;23.226;2022-11-15T05:34:14;40.08;;;19.55;;
56242;SDS011;42155;53.096;23.226;2022-11-15T05:36:31;39.35;;;18.70;;
56242;SDS011;42155;53.096;23.226;2022-11-15T05:38:35;36.80;;;18.45;;
56242;SDS011;42155;53.096;23.226;2022-11-15T05:40:35;39.53;;;18.58;;
56242;SDS011;42155;53.096;23.226;2022-11-15T05:42:36;35.20;;;17.65;;
56242;SDS011;42155;53.096;23.226;2022-11-15T05:44:37;37.67;;;19.13;;
56242;SDS011;42155;53.096;23.226;2022-11-15T05:46:40;36.47;;;17.77;;
56242;SDS011;42155;53.096;23.226;2022-11-15T05:48:43;34.15;;;17.92;;
56242;SDS011;42155;53.096;23.226;2022-11-15T05:50:47;37.25;;;18.92;;
56242;SDS011;42155;53.096;23.226;2022-11-15T05:52:49;32.28;;;16.95;;
56242;SDS011;42155;53.096;23.226;2022-11-15T05:54:51;33.20;;;17.65;;
56242;SDS011;42155;53.096;23.226;2022-11-15T05:56:51;36.75;;;18.25;;
56242;SDS011;42155;53.096;23.226;2022-11-15T05:58:55;36.17;;;17.55;;
56242;SDS011;42155;53.096;23.226;2022-11-15T06:00:57;35.75;;;17.58;;
56242;SDS011;42155;53.096;23.226;2022-11-15T06:02:58;37.25;;;17.65;;
56242;SDS011;42155;53.096;23.226;2022-11-15T06:04:59;41.70;;;19.15;;
56242;SDS011;42155;53.096;23.226;2022-11-15T06:06:59;31.63;;;16.38;;
56242;SDS011;42155;53.096;23.226;2022-11-15T06:08:59;31.70;;;16.90;;
56242;SDS011;42155;53.096;23.226;2022-11-15T06:11:06;34.90;;;17.38;;
56242;SDS011;42155;53.096;23.226;2022-11-15T06:13:07;32.13;;;16.35;;
56242;SDS011;42155;53.096;23.226;2022-11-15T06:15:07;31.02;;;15.57;;
56242;SDS011;42155;53.096;23.226;2022-11-15T06:17:08;32.38;;;16.30;;
56242;SDS011;42155;53.096;23.226;2022-11-15T06:19:08;32.17;;;16.27;;
56242;SDS011;42155;53.096;23.226;2022-11-15T06:21:08;31.23;;;15.30;;
56242;SDS011;42155;53.096;23.226;2022-11-15T06:23:09;31.60;;;15.82;;
56242;SDS011;42155;53.096;23.226;2022-11-15T06:25:09;28.75;;;14.55;;
56242;SDS011;42155;53.096;23.226;2022-11-15T06:27:10;26.95;;;15.18;;
56242;SDS011;42155;53.096;23.226;2022-11-15T06:29:11;30.40;;;14.55;;
56242;SDS011;42155;53.096;23.226;2022-11-15T06:31:11;28.45;;;14.82;;
56242;SDS011;42155;53.096;23.226;2022-11-15T06:33:12;27.67;;;15.30;;
56242;SDS011;42155;53.096;23.226;2022-11-15T06:35:12;30.55;;;16.25;;
56242;SDS011;42155;53.096;23.226;2022-11-15T06:37:13;27.50;;;14.95;;
56242;SDS011;42155;53.096;23.226;2022-11-15T06:39:13;28.92;;;15.27;;
56242;SDS011;42155;53.096;23.226;2022-11-15T06:41:14;34.75;;;16.45;;
56242;SDS011;42155;53.096;23.226;2022-11-15T06:43:15;32.63;;;15.82;;
56242;SDS011;42155;53.096;23.226;2022-11-15T06:45:15;33.08;;;16.38;;
56242;SDS011;42155;53.096;23.226;2022-11-15T06:47:15;31.58;;;16.02;;
56242;SDS011;42155;53.096;23.226;2022-11-15T06:49:16;30.30;;;16.45;;
56242;SDS011;42155;53.096;23.226;2022-11-15T06:51:16;33.88;;;18.27;;
56242;SDS011;42155;53.096;23.226;2022-11-15T06:53:16;29.83;;;15.27;;
56242;SDS011;42155;53.096;23.226;2022-11-15T06:55:17;31.08;;;16.08;;
56242;SDS011;42155;53.096;23.226;2022-11-15T06:57:17;32.72;;;17.20;;
56242;SDS011;42155;53.096;23.226;2022-11-15T06:59:17;33.85;;;16.20;;
56242;SDS011;42155;53.096;23.226;2022-11-15T07:01:18;34.22;;;16.55;;
56242;SDS011;42155;53.096;23.226;2022-11-15T07:03:18;34.47;;;16.77;;
56242;SDS011;42155;53.096;23.226;2022-11-15T07:05:18;32.42;;;15.93;;
56242;SDS011;42155;53.096;23.226;2022-11-15T07:07:19;36.42;;;17.27;;
56242;SDS011;42155;53.096;23.226;2022-11-15T07:09:19;35.90;;;16.42;;
56242;SDS011;42155;53.096;23.226;2022-11-15T07:11:19;37.63;;;16.58;;
56242;SDS011;42155;53.096;23.226;2022-11-15T07:13:20;36.08;;;17.40;;
56242;SDS011;42155;53.096;23.226;2022-11-15T07:15:24;37.97;;;18.05;;
56242;SDS011;42155;53.096;23.226;2022-11-15T07:17:25;39.75;;;17.88;;
56242;SDS011;42155;53.096;23.226;2022-11-15T07:19:26;36.97;;;18.08;;
56242;SDS011;42155;53.096;23.226;2022-11-15T07:21:26;41.97;;;19.35;;
56242;SDS011;42155;53.096;23.226;2022-11-15T07:23:27;43.78;;;19.83;;
56242;SDS011;42155;53.096;23.226;2022-11-15T07:25:27;52.70;;;23.20;;
56242;SDS011;42155;53.096;23.226;2022-11-15T07:27:28;43.63;;;19.75;;
56242;SDS011;42155;53.096;23.226;2022-11-15T07:29:28;45.72;;;21.45;;
56242;SDS011;42155;53.096;23.226;2022-11-15T07:31:28;43.40;;;19.77;;
56242;SDS011;42155;53.096;23.226;2022-11-15T07:33:29;43.50;;;20.08;;
56242;SDS011;42155;53.096;23.226;2022-11-15T07:35:29;48.53;;;20.83;;
56242;SDS011;42155;53.096;23.226;2022-11-15T07:37:29;47.30;;;21.27;;
56242;SDS011;42155;53.096;23.226;2022-11-15T07:39:30;48.00;;;20.80;;
56242;SDS011;42155;53.096;23.226;2022-11-15T07:41:30;44.78;;;20.73;;
56242;SDS011;42155;53.096;23.226;2022-11-15T07:43:30;49.72;;;22.70;;
56242;SDS011;42155;53.096;23.226;2022-11-15T07:45:31;47.80;;;22.67;;
56242;SDS011;42155;53.096;23.226;2022-11-15T07:47:32;48.40;;;21.15;;
56242;SDS011;42155;53.096;23.226;2022-11-15T07:49:32;47.85;;;22.38;;
56242;SDS011;42155;53.096;23.226;2022-11-15T07:51:32;48.45;;;21.63;;
56242;SDS011;42155;53.096;23.226;2022-11-15T07:53:32;48.83;;;22.13;;
56242;SDS011;42155;53.096;23.226;2022-11-15T07:55:33;51.88;;;22.20;;
56242;SDS011;42155;53.096;23.226;2022-11-15T07:57:33;48.75;;;22.02;;
56242;SDS011;42155;53.096;23.226;2022-11-15T07:59:34;49.47;;;21.98;;
56242;SDS011;42155;53.096;23.226;2022-11-15T08:01:34;53.03;;;23.17;;
56242;SDS011;42155;53.096;23.226;2022-11-15T08:03:34;47.85;;;22.10;;
56242;SDS011;42155;53.096;23.226;2022-11-15T08:05:36;46.97;;;22.42;;
56242;SDS011;42155;53.096;23.226;2022-11-15T08:07:37;53.22;;;21.88;;
56242;SDS011;42155;53.096;23.226;2022-11-15T08:09:37;53.38;;;22.88;;
56242;SDS011;42155;53.096;23.226;2022-11-15T08:11:37;54.60;;;22.27;;
56242;SDS011;42155;53.096;23.226;2022-11-15T08:13:38;58.92;;;24.48;;
56242;SDS011;42155;53.096;23.226;2022-11-15T08:15:38;53.95;;;22.27;;
56242;SDS011;42155;53.096;23.226;2022-11-15T08:17:38;53.67;;;24.30;;
56242;SDS011;42155;53.096;23.226;2022-11-15T08:19:39;49.58;;;21.67;;
56242;SDS011;42155;53.096;23.226;2022-11-15T08:21:39;51.42;;;22.75;;
56242;SDS011;42155;53.096;23.226;2022-11-15T08:23:39;56.08;;;24.23;;
56242;SDS011;42155;53.096;23.226;2022-11-15T08:25:40;55.53;;;23.80;;
56242;SDS011;42155;53.096;23.226;2022-11-15T08:27:40;53.08;;;22.73;;
56242;SDS011;42155;53.096;23.226;2022-11-15T08:29:43;50.10;;;21.92;;
56242;SDS011;42155;53.096;23.226;2022-11-15T08:31:44;55.63;;;22.95;;
56242;SDS011;42155;53.096;23.226;2022-11-15T08:33:44;54.90;;;21.83;;
56242;SDS011;42155;53.096;23.226;2022-11-15T08:35:45;54.60;;;22.30;;
56242;SDS011;42155;53.096;23.226;2022-11-15T08:37:45;52.00;;;22.02;;
56242;SDS011;42155;53.096;23.226;2022-11-15T08:39:46;49.92;;;21.42;;
56242;SDS011;42155;53.096;23.226;2022-11-15T08:41:47;50.97;;;22.25;;
56242;SDS011;42155;53.096;23.226;2022-11-15T08:43:47;49.72;;;20.75;;
56242;SDS011;42155;53.096;23.226;2022-11-15T08:45:47;52.58;;;22.80;;
56242;SDS011;42155;53.096;23.226;2022-11-15T08:47:48;53.17;;;21.73;;
56242;SDS011;42155;53.096;23.226;2022-11-15T08:49:48;48.60;;;20.20;;
56242;SDS011;42155;53.096;23.226;2022-11-15T08:51:48;51.20;;;22.20;;
56242;SDS011;42155;53.096;23.226;2022-11-15T08:53:49;48.53;;;20.15;;
56242;SDS011;42155;53.096;23.226;2022-11-15T08:55:49;46.88;;;21.40;;
56242;SDS011;42155;53.096;23.226;2022-11-15T08:57:49;50.47;;;21.58;;
56242;SDS011;42155;53.096;23.226;2022-11-15T08:59:50;50.60;;;20.67;;
56242;SDS011;42155;53.096;23.226;2022-11-15T09:01:50;84.38;;;36.90;;
56242;SDS011;42155;53.096;23.226;2022-11-15T09:03:50;73.13;;;29.77;;
56242;SDS011;42155;53.096;23.226;2022-11-15T09:05:57;68.55;;;27.75;;
56242;SDS011;42155;53.096;23.226;2022-11-15T09:07:59;50.95;;;22.98;;
56242;SDS011;42155;53.096;23.226;2022-11-15T09:09:59;53.22;;;22.25;;
56242;SDS011;42155;53.096;23.226;2022-11-15T09:12:00;52.17;;;21.88;;
56242;SDS011;42155;53.096;23.226;2022-11-15T09:14:00;50.13;;;20.45;;
56242;SDS011;42155;53.096;23.226;2022-11-15T09:16:00;50.65;;;21.25;;
56242;SDS011;42155;53.096;23.226;2022-11-15T09:18:01;49.15;;;20.33;;
56242;SDS011;42155;53.096;23.226;2022-11-15T09:20:01;48.22;;;20.00;;
56242;SDS011;42155;53.096;23.226;2022-11-15T09:22:02;49.17;;;19.67;;
56242;SDS011;42155;53.096;23.226;2022-11-15T09:24:05;46.28;;;19.73;;
56242;SDS011;42155;53.096;23.226;2022-11-15T09:26:06;45.72;;;20.17;;
56242;SDS011;42155;53.096;23.226;2022-11-15T09:28:07;52.83;;;20.13;;
56242;SDS011;42155;53.096;23.226;2022-11-15T09:30:08;45.90;;;19.30;;
56242;SDS011;42155;53.096;23.226;2022-11-15T09:32:08;46.97;;;19.27;;
56242;SDS011;42155;53.096;23.226;2022-11-15T09:34:09;53.17;;;20.20;;
56242;SDS011;42155;53.096;23.226;2022-11-15T09:36:10;45.85;;;19.05;;
56242;SDS011;42155;53.096;23.226;2022-11-15T09:38:10;52.45;;;21.02;;
56242;SDS011;42155;53.096;23.226;2022-11-15T09:40:14;49.35;;;19.92;;
56242;SDS011;42155;53.096;23.226;2022-11-15T09:42:30;49.28;;;19.83;;
56242;SDS011;42155;53.096;23.226;2022-11-15T09:47:31;51.90;;;19.95;;
56242;SDS011;42155;53.096;23.226;2022-11-15T09:49:42;55.67;;;21.50;;
56242;SDS011;42155;53.096;23.226;2022-11-15T09:51:43;48.95;;;19.77;;
56242;SDS011;42155;53.096;23.226;2022-11-15T09:53:56;50.03;;;21.00;;
56242;SDS011;42155;53.096;23.226;2022-11-15T09:56:05;53.58;;;20.15;;
56242;SDS011;42155;53.096;23.226;2022-11-15T10:00:42;46.83;;;19.67;;
56242;SDS011;42155;53.096;23.226;2022-11-15T10:05:07;47.97;;;18.60;;
56242;SDS011;42155;53.096;23.226;2022-11-15T10:09:39;57.15;;;21.67;;
56242;SDS011;42155;53.096;23.226;2022-11-15T10:11:47;46.22;;;18.85;;
56242;SDS011;42155;53.096;23.226;2022-11-15T10:13:48;53.92;;;20.65;;
56242;SDS011;42155;53.096;23.226;2022-11-15T10:15:51;51.55;;;20.80;;
56242;SDS011;42155;53.096;23.226;2022-11-15T10:18:04;50.88;;;19.95;;
56242;SDS011;42155;53.096;23.226;2022-11-15T10:20:20;54.67;;;22.05;;
56242;SDS011;42155;53.096;23.226;2022-11-15T10:22:35;57.60;;;22.70;;
56242;SDS011;42155;53.096;23.226;2022-11-15T10:24:39;50.90;;;20.77;;
56242;SDS011;42155;53.096;23.226;2022-11-15T10:26:47;61.08;;;23.08;;
56242;SDS011;42155;53.096;23.226;2022-11-15T10:28:48;56.05;;;21.17;;
56242;SDS011;42155;53.096;23.226;2022-11-15T10:30:50;52.67;;;21.92;;
56242;SDS011;42155;53.096;23.226;2022-11-15T10:32:53;52.22;;;21.30;;
56242;SDS011;42155;53.096;23.226;2022-11-15T10:34:53;49.50;;;21.10;;
56242;SDS011;42155;53.096;23.226;2022-11-15T10:36:57;53.17;;;20.58;;
56242;SDS011;42155;53.096;23.226;2022-11-15T10:38:59;59.38;;;21.73;;
56242;SDS011;42155;53.096;23.226;2022-11-15T10:41:06;55.00;;;22.58;;
56242;SDS011;42155;53.096;23.226;2022-11-15T10:45:27;59.67;;;22.73;;
56242;SDS011;42155;53.096;23.226;2022-11-15T10:47:30;54.80;;;22.05;;
56242;SDS011;42155;53.096;23.226;2022-11-15T10:49:32;53.25;;;22.73;;
56242;SDS011;42155;53.096;23.226;2022-11-15T10:51:33;52.97;;;21.55;;
56242;SDS011;42155;53.096;23.226;2022-11-15T10:53:45;59.00;;;23.10;;
56242;SDS011;42155;53.096;23.226;2022-11-15T10:55:47;57.72;;;23.75;;
56242;SDS011;42155;53.096;23.226;2022-11-15T10:57:58;59.80;;;23.80;;
56242;SDS011;42155;53.096;23.226;2022-11-15T11:00:27;62.65;;;23.65;;
56242;SDS011;42155;53.096;23.226;2022-11-15T11:04:37;53.53;;;22.23;;
56242;SDS011;42155;53.096;23.226;2022-11-15T11:06:50;59.58;;;23.40;;
56242;SDS011;42155;53.096;23.226;2022-11-15T11:09:02;65.10;;;25.97;;
56242;SDS011;42155;53.096;23.226;2022-11-15T11:11:04;63.10;;;24.85;;
56242;SDS011;42155;53.096;23.226;2022-11-15T11:13:19;63.47;;;25.17;;
56242;SDS011;42155;53.096;23.226;2022-11-15T11:15:28;69.85;;;26.88;;
56242;SDS011;42155;53.096;23.226;2022-11-15T11:17:36;60.25;;;24.10;;
56242;SDS011;42155;53.096;23.226;2022-11-15T11:20:00;68.75;;;27.80;;
56242;SDS011;42155;53.096;23.226;2022-11-15T11:22:31;69.40;;;28.08;;
56242;SDS011;42155;53.096;23.226;2022-11-15T11:29:37;65.82;;;26.20;;
56242;SDS011;42155;53.096;23.226;2022-11-15T11:32:02;67.90;;;26.45;;
56242;SDS011;42155;53.096;23.226;2022-11-15T11:40:57;68.32;;;25.27;;
56242;SDS011;42155;53.096;23.226;2022-11-15T11:45:44;61.25;;;23.85;;
56242;SDS011;42155;53.096;23.226;2022-11-15T11:48:03;62.65;;;24.23;;
56242;SDS011;42155;53.096;23.226;2022-11-15T11:50:23;68.63;;;24.30;;
56242;SDS011;42155;53.096;23.226;2022-11-15T11:52:33;59.03;;;22.70;;
56242;SDS011;42155;53.096;23.226;2022-11-15T11:59:50;56.72;;;23.42;;
56242;SDS011;42155;53.096;23.226;2022-11-15T12:02:28;58.72;;;22.20;;
56242;SDS011;42155;53.096;23.226;2022-11-15T12:04:36;56.88;;;21.90;;
56242;SDS011;42155;53.096;23.226;2022-11-15T12:14:14;57.90;;;22.33;;
56242;SDS011;42155;53.096;23.226;2022-11-15T12:16:23;63.10;;;22.88;;
56242;SDS011;42155;53.096;23.226;2022-11-15T12:18:27;57.85;;;21.30;;
56242;SDS011;42155;53.096;23.226;2022-11-15T12:20:35;63.35;;;22.48;;
56242;SDS011;42155;53.096;23.226;2022-11-15T12:22:41;57.65;;;22.35;;
56242;SDS011;42155;53.096;23.226;2022-11-15T12:24:53;59.90;;;22.55;;
56242;SDS011;42155;53.096;23.226;2022-11-15T12:27:00;66.60;;;22.88;;
56242;SDS011;42155;53.096;23.226;2022-11-15T12:29:12;55.60;;;21.55;;
56242;SDS011;42155;53.096;23.226;2022-11-15T12:31:24;57.92;;;22.40;;
56242;SDS011;42155;53.096;23.226;2022-11-15T12:33:42;63.05;;;22.23;;
56242;SDS011;42155;53.096;23.226;2022-11-15T12:35:44;58.08;;;22.88;;
56242;SDS011;42155;53.096;23.226;2022-11-15T12:37:58;56.00;;;21.65;;
56242;SDS011;42155;53.096;23.226;2022-11-15T12:55:31;59.95;;;21.35;;
56242;SDS011;42155;53.096;23.226;2022-11-15T12:57:33;57.63;;;21.02;;
56242;SDS011;42155;53.096;23.226;2022-11-15T13:06:08;66.60;;;22.38;;
56242;SDS011;42155;53.096;23.226;2022-11-15T13:08:39;69.43;;;24.65;;
56242;SDS011;42155;53.096;23.226;2022-11-15T13:10:41;63.65;;;23.55;;
56242;SDS011;42155;53.096;23.226;2022-11-15T13:16:49;63.40;;;23.58;;
56242;SDS011;42155;53.096;23.226;2022-11-15T13:18:58;68.90;;;23.98;;
56242;SDS011;42155;53.096;23.226;2022-11-15T13:21:01;65.05;;;22.92;;
56242;SDS011;42155;53.096;23.226;2022-11-15T13:23:13;66.05;;;24.23;;
56242;SDS011;42155;53.096;23.226;2022-11-15T13:25:21;69.22;;;24.52;;
56242;SDS011;42155;53.096;23.226;2022-11-15T13:27:31;59.60;;;22.40;;
56242;SDS011;42155;53.096;23.226;2022-11-15T13:29:31;59.83;;;22.60;;
56242;SDS011;42155;53.096;23.226;2022-11-15T13:33:40;66.47;;;23.95;;